sensor_id;sensor_type;location;lat;lon;timestamp;pressure;altitude;pressure_sealevel;temperature;humidity
59789;BME280;47353;51.614;5.530;2023-01-26T00:00:48;102487.53;;;-2.29;100.00
59789;BME280;47353;51.614;5.530;2023-01-26T00:03:14;102482.97;;;-2.29;100.00
59789;BME280;47353;51.614;5.530;2023-01-26T00:05:40;102485.38;;;-2.26;100.00
59789;BME280;47353;51.614;5.530;2023-01-26T00:08:06;102483.78;;;-2.28;100.00
59789;BME280;47353;51.614;5.530;2023-01-26T00:10:31;102465.69;;;-2.28;100.00
59789;BME280;47353;51.614;5.530;2023-01-26T00:12:56;102467.53;;;-2.28;100.00
59789;BME280;47353;51.614;5.530;2023-01-26T00:15:22;102469.09;;;-2.26;100.00
59789;BME280;47353;51.614;5.530;2023-01-26T00:17:47;102466.22;;;-2.24;100.00
59789;BME280;47353;51.614;5.530;2023-01-26T00:20:15;102467.84;;;-2.31;100.00
59789;BME280;47353;51.614;5.530;2023-01-26T00:22:41;102462.81;;;-2.26;100.00
59789;BME280;47353;51.614;5.530;2023-01-26T00:25:07;102459.22;;;-2.27;100.00
59789;BME280;47353;51.614;5.530;2023-01-26T00:27:33;102460.50;;;-2.21;100.00
59789;BME280;47353;51.614;5.530;2023-01-26T00:29:58;102460.03;;;-2.17;100.00
59789;BME280;47353;51.614;5.530;2023-01-26T00:32:23;102454.06;;;-2.20;100.00
59789;BME280;47353;51.614;5.530;2023-01-26T00:34:49;102449.97;;;-2.24;100.00
59789;BME280;47353;51.614;5.530;2023-01-26T00:37:14;102442.13;;;-2.27;100.00
59789;BME280;47353;51.614;5.530;2023-01-26T00:39:40;102444.44;;;-2.32;100.00
59789;BME280;47353;51.614;5.530;2023-01-26T00:42:05;102443.03;;;-2.19;100.00
59789;BME280;47353;51.614;5.530;2023-01-26T00:44:31;102442.84;;;-2.25;100.00
59789;BME280;47353;51.614;5.530;2023-01-26T00:46:56;102437.69;;;-2.28;100.00
59789;BME280;47353;51.614;5.530;2023-01-26T00:49:21;102429.03;;;-2.32;100.00
59789;BME280;47353;51.614;5.530;2023-01-26T00:51:47;102430.44;;;-2.28;100.00
59789;BME280;47353;51.614;5.530;2023-01-26T00:54:12;102423.72;;;-2.24;100.00
59789;BME280;47353;51.614;5.530;2023-01-26T00:56:38;102429.13;;;-2.24;100.00
59789;BME280;47353;51.614;5.530;2023-01-26T00:59:03;102421.06;;;-2.33;100.00
59789;BME280;47353;51.614;5.530;2023-01-26T01:01:30;102430.03;;;-2.33;100.00
59789;BME280;47353;51.614;5.530;2023-01-26T01:03:55;102428.09;;;-2.23;100.00
59789;BME280;47353;51.614;5.530;2023-01-26T01:06:21;102422.28;;;-2.28;100.00
59789;BME280;47353;51.614;5.530;2023-01-26T01:08:46;102416.00;;;-2.28;100.00
59789;BME280;47353;51.614;5.530;2023-01-26T01:11:12;102405.00;;;-2.27;100.00
59789;BME280;47353;51.614;5.530;2023-01-26T01:13:38;102403.53;;;-2.21;100.00
59789;BME280;47353;51.614;5.530;2023-01-26T01:16:05;102422.69;;;-2.23;100.00
59789;BME280;47353;51.614;5.530;2023-01-26T01:18:31;102420.69;;;-2.21;100.00
59789;BME280;47353;51.614;5.530;2023-01-26T01:20:56;102428.34;;;-2.16;100.00
59789;BME280;47353;51.614;5.530;2023-01-26T01:23:21;102416.31;;;-2.14;100.00
59789;BME280;47353;51.614;5.530;2023-01-26T01:25:56;102414.72;;;-2.24;100.00
59789;BME280;47353;51.614;5.530;2023-01-26T01:28:21;102409.19;;;-2.15;100.00
59789;BME280;47353;51.614;5.530;2023-01-26T01:30:47;102396.84;;;-2.09;100.00
59789;BME280;47353;51.614;5.530;2023-01-26T01:33:12;102399.88;;;-2.12;100.00
59789;BME280;47353;51.614;5.530;2023-01-26T01:35:37;102416.94;;;-2.02;100.00
59789;BME280;47353;51.614;5.530;2023-01-26T01:38:03;102414.47;;;-2.13;100.00
59789;BME280;47353;51.614;5.530;2023-01-26T01:40:28;102406.19;;;-2.12;100.00
59789;BME280;47353;51.614;5.530;2023-01-26T01:42:54;102404.44;;;-2.13;100.00
59789;BME280;47353;51.614;5.530;2023-01-26T01:47:56;102402.91;;;-2.15;100.00
59789;BME280;47353;51.614;5.530;2023-01-26T01:50:24;102419.34;;;-1.99;100.00
59789;BME280;47353;51.614;5.530;2023-01-26T01:52:51;102418.41;;;-2.08;100.00
59789;BME280;47353;51.614;5.530;2023-01-26T01:55:18;102416.31;;;-2.14;100.00
59789;BME280;47353;51.614;5.530;2023-01-26T01:57:57;102419.03;;;-2.14;100.00
59789;BME280;47353;51.614;5.530;2023-01-26T02:00:24;102417.34;;;-2.15;100.00
59789;BME280;47353;51.614;5.530;2023-01-26T02:03:04;102396.13;;;-2.19;100.00
59789;BME280;47353;51.614;5.530;2023-01-26T02:08:18;102400.59;;;-2.10;100.00
59789;BME280;47353;51.614;5.530;2023-01-26T02:10:46;102400.28;;;-2.07;100.00
59789;BME280;47353;51.614;5.530;2023-01-26T02:13:15;102396.84;;;-2.09;100.00
59789;BME280;47353;51.614;5.530;2023-01-26T02:15:41;102384.78;;;-2.15;100.00
59789;BME280;47353;51.614;5.530;2023-01-26T02:18:07;102387.69;;;-2.08;100.00
59789;BME280;47353;51.614;5.530;2023-01-26T02:21:05;102386.72;;;-2.07;100.00
59789;BME280;47353;51.614;5.530;2023-01-26T02:26:34;102379.13;;;-2.04;100.00
59789;BME280;47353;51.614;5.530;2023-01-26T02:29:04;102391.44;;;-2.09;100.00
59789;BME280;47353;51.614;5.530;2023-01-26T02:31:31;102385.84;;;-2.08;100.00
59789;BME280;47353;51.614;5.530;2023-01-26T02:33:56;102381.13;;;-2.06;100.00
59789;BME280;47353;51.614;5.530;2023-01-26T02:36:27;102386.41;;;-2.04;100.00
59789;BME280;47353;51.614;5.530;2023-01-26T02:41:38;102375.00;;;-2.08;100.00
59789;BME280;47353;51.614;5.530;2023-01-26T02:44:23;102371.66;;;-2.02;100.00
59789;BME280;47353;51.614;5.530;2023-01-26T02:46:49;102371.50;;;-2.00;100.00
59789;BME280;47353;51.614;5.530;2023-01-26T02:49:15;102366.06;;;-2.00;100.00
59789;BME280;47353;51.614;5.530;2023-01-26T02:51:59;102373.88;;;-1.97;100.00
59789;BME280;47353;51.614;5.530;2023-01-26T02:54:24;102376.44;;;-1.96;100.00
59789;BME280;47353;51.614;5.530;2023-01-26T02:57:08;102378.50;;;-1.98;100.00
59789;BME280;47353;51.614;5.530;2023-01-26T02:59:33;102368.78;;;-2.00;100.00
59789;BME280;47353;51.614;5.530;2023-01-26T03:01:59;102379.00;;;-1.94;100.00
59789;BME280;47353;51.614;5.530;2023-01-26T03:04:24;102367.00;;;-1.92;100.00
59789;BME280;47353;51.614;5.530;2023-01-26T03:06:50;102367.19;;;-1.85;100.00
59789;BME280;47353;51.614;5.530;2023-01-26T03:09:15;102364.78;;;-1.88;100.00
59789;BME280;47353;51.614;5.530;2023-01-26T03:11:41;102364.78;;;-1.88;100.00
59789;BME280;47353;51.614;5.530;2023-01-26T03:14:13;102366.19;;;-1.84;100.00
59789;BME280;47353;51.614;5.530;2023-01-26T03:16:39;102372.78;;;-1.87;100.00
59789;BME280;47353;51.614;5.530;2023-01-26T03:19:05;102367.88;;;-1.83;100.00
59789;BME280;47353;51.614;5.530;2023-01-26T03:21:34;102374.34;;;-1.84;100.00
59789;BME280;47353;51.614;5.530;2023-01-26T03:24:18;102368.22;;;-1.86;100.00
59789;BME280;47353;51.614;5.530;2023-01-26T03:27:02;102371.47;;;-1.83;100.00
59789;BME280;47353;51.614;5.530;2023-01-26T03:29:46;102354.47;;;-1.85;100.00
59789;BME280;47353;51.614;5.530;2023-01-26T03:32:12;102369.63;;;-1.82;100.00
59789;BME280;47353;51.614;5.530;2023-01-26T03:34:37;102372.31;;;-1.82;100.00
59789;BME280;47353;51.614;5.530;2023-01-26T03:37:03;102361.97;;;-1.79;100.00
59789;BME280;47353;51.614;5.530;2023-01-26T03:39:29;102364.84;;;-1.80;100.00
59789;BME280;47353;51.614;5.530;2023-01-26T03:42:13;102361.97;;;-1.79;100.00
59789;BME280;47353;51.614;5.530;2023-01-26T03:44:57;102358.94;;;-1.76;100.00
59789;BME280;47353;51.614;5.530;2023-01-26T03:47:41;102351.81;;;-1.77;100.00
59789;BME280;47353;51.614;5.530;2023-01-26T03:50:25;102362.34;;;-1.74;100.00
59789;BME280;47353;51.614;5.530;2023-01-26T03:53:17;102350.13;;;-1.78;100.00
59789;BME280;47353;51.614;5.530;2023-01-26T03:56:03;102353.34;;;-1.74;100.00
59789;BME280;47353;51.614;5.530;2023-01-26T03:58:56;102356.44;;;-1.69;100.00
59789;BME280;47353;51.614;5.530;2023-01-26T04:01:24;102354.22;;;-1.74;100.00
59789;BME280;47353;51.614;5.530;2023-01-26T04:03:54;102354.44;;;-1.67;100.00
59789;BME280;47353;51.614;5.530;2023-01-26T04:06:42;102350.53;;;-1.64;100.00
59789;BME280;47353;51.614;5.530;2023-01-26T04:09:26;102351.56;;;-1.65;100.00
59789;BME280;47353;51.614;5.530;2023-01-26T04:11:52;102355.25;;;-1.67;100.00
59789;BME280;47353;51.614;5.530;2023-01-26T04:14:18;102355.63;;;-1.61;100.00
59789;BME280;47353;51.614;5.530;2023-01-26T04:17:03;102359.22;;;-1.61;100.00
59789;BME280;47353;51.614;5.530;2023-01-26T04:19:47;102355.63;;;-1.61;100.00
59789;BME280;47353;51.614;5.530;2023-01-26T04:22:36;102356.34;;;-1.59;100.00
59789;BME280;47353;51.614;5.530;2023-01-26T04:25:06;102356.00;;;-1.56;100.00
59789;BME280;47353;51.614;5.530;2023-01-26T04:27:32;102355.16;;;-1.57;100.00
59789;BME280;47353;51.614;5.530;2023-01-26T04:29:59;102350.59;;;-1.56;100.00
59789;BME280;47353;51.614;5.530;2023-01-26T04:32:25;102355.53;;;-1.52;100.00
59789;BME280;47353;51.614;5.530;2023-01-26T04:34:51;102356.56;;;-1.53;100.00
59789;BME280;47353;51.614;5.530;2023-01-26T04:37:16;102358.25;;;-1.52;100.00
59789;BME280;47353;51.614;5.530;2023-01-26T04:39:42;102358.25;;;-1.52;100.00
59789;BME280;47353;51.614;5.530;2023-01-26T04:42:07;102355.84;;;-1.55;100.00
59789;BME280;47353;51.614;5.530;2023-01-26T04:44:33;102352.28;;;-1.55;100.00
59789;BME280;47353;51.614;5.530;2023-01-26T04:46:58;102361.28;;;-1.55;100.00
59789;BME280;47353;51.614;5.530;2023-01-26T04:49:23;102354.00;;;-1.54;100.00
59789;BME280;47353;51.614;5.530;2023-01-26T04:51:49;102351.13;;;-1.53;100.00
59789;BME280;47353;51.614;5.530;2023-01-26T04:54:14;102357.06;;;-1.49;100.00
59789;BME280;47353;51.614;5.530;2023-01-26T04:56:39;102349.06;;;-1.51;100.00
59789;BME280;47353;51.614;5.530;2023-01-26T04:59:06;102359.44;;;-1.46;100.00
59789;BME280;47353;51.614;5.530;2023-01-26T05:01:32;102361.66;;;-1.50;100.00
59789;BME280;47353;51.614;5.530;2023-01-26T05:03:59;102352.81;;;-1.52;100.00
59789;BME280;47353;51.614;5.530;2023-01-26T05:06:25;102346.84;;;-1.55;100.00
59789;BME280;47353;51.614;5.530;2023-01-26T05:08:50;102345.16;;;-1.56;100.00
59789;BME280;47353;51.614;5.530;2023-01-26T05:11:16;102346.84;;;-1.55;100.00
59789;BME280;47353;51.614;5.530;2023-01-26T05:13:41;102344.66;;;-1.52;100.00
59789;BME280;47353;51.614;5.530;2023-01-26T05:16:07;102347.91;;;-1.48;100.00
59789;BME280;47353;51.614;5.530;2023-01-26T05:18:32;102345.69;;;-1.45;100.00
59789;BME280;47353;51.614;5.530;2023-01-26T05:20:58;102343.00;;;-1.45;100.00
59789;BME280;47353;51.614;5.530;2023-01-26T05:23:23;102346.56;;;-1.44;100.00
59789;BME280;47353;51.614;5.530;2023-01-26T05:25:49;102351.13;;;-1.45;100.00
59789;BME280;47353;51.614;5.530;2023-01-26T05:28:14;102352.16;;;-1.46;100.00
59789;BME280;47353;51.614;5.530;2023-01-26T05:30:40;102352.31;;;-1.47;100.00
59789;BME280;47353;51.614;5.530;2023-01-26T05:33:07;102352.31;;;-1.47;100.00
59789;BME280;47353;51.614;5.530;2023-01-26T05:35:33;102347.91;;;-1.48;100.00
59789;BME280;47353;51.614;5.530;2023-01-26T05:37:58;102353.84;;;-1.45;100.00
59789;BME280;47353;51.614;5.530;2023-01-26T05:40:24;102358.13;;;-1.42;100.00
59789;BME280;47353;51.614;5.530;2023-01-26T05:42:50;102347.97;;;-1.40;100.00
59789;BME280;47353;51.614;5.530;2023-01-26T05:45:16;102348.78;;;-1.40;100.00
59789;BME280;47353;51.614;5.530;2023-01-26T05:47:43;102350.84;;;-1.42;100.00
59789;BME280;47353;51.614;5.530;2023-01-26T05:50:09;102344.56;;;-1.42;100.00
59789;BME280;47353;51.614;5.530;2023-01-26T05:52:35;102348.28;;;-1.43;100.00
59789;BME280;47353;51.614;5.530;2023-01-26T05:55:00;102346.94;;;-1.39;100.00
59789;BME280;47353;51.614;5.530;2023-01-26T05:57:26;102353.22;;;-1.39;100.00
59789;BME280;47353;51.614;5.530;2023-01-26T05:59:51;102354.91;;;-1.38;100.00
59789;BME280;47353;51.614;5.530;2023-01-26T06:02:17;102360.34;;;-1.38;100.00
59789;BME280;47353;51.614;5.530;2023-01-26T06:04:43;102349.16;;;-1.35;100.00
59789;BME280;47353;51.614;5.530;2023-01-26T06:07:08;102354.06;;;-1.38;100.00
59789;BME280;47353;51.614;5.530;2023-01-26T06:09:34;102359.88;;;-1.33;100.00
59789;BME280;47353;51.614;5.530;2023-01-26T06:11:59;102355.13;;;-1.31;100.00
59789;BME280;47353;51.614;5.530;2023-01-26T06:14:25;102374.31;;;-1.33;100.00
59789;BME280;47353;51.614;5.530;2023-01-26T06:16:50;102364.59;;;-1.35;100.00
59789;BME280;47353;51.614;5.530;2023-01-26T06:19:18;102368.72;;;-1.31;100.00
59789;BME280;47353;51.614;5.530;2023-01-26T06:21:43;102362.25;;;-1.30;100.00
59789;BME280;47353;51.614;5.530;2023-01-26T06:24:09;102367.34;;;-1.27;100.00
59789;BME280;47353;51.614;5.530;2023-01-26T06:26:34;102353.59;;;-1.26;100.00
59789;BME280;47353;51.614;5.530;2023-01-26T06:28:59;102355.31;;;-1.25;100.00
59789;BME280;47353;51.614;5.530;2023-01-26T06:31:25;102360.91;;;-1.26;100.00
59789;BME280;47353;51.614;5.530;2023-01-26T06:33:54;102364.63;;;-1.27;100.00
59789;BME280;47353;51.614;5.530;2023-01-26T06:36:19;102362.78;;;-1.27;100.00
59789;BME280;47353;51.614;5.530;2023-01-26T06:38:47;102375.34;;;-1.26;100.00
59789;BME280;47353;51.614;5.530;2023-01-26T06:41:12;102376.88;;;-1.23;100.00
59789;BME280;47353;51.614;5.530;2023-01-26T06:43:38;102376.72;;;-1.22;100.00
59789;BME280;47353;51.614;5.530;2023-01-26T06:46:04;102371.31;;;-1.22;100.00
59789;BME280;47353;51.614;5.530;2023-01-26T06:48:33;102380.13;;;-1.20;100.00
59789;BME280;47353;51.614;5.530;2023-01-26T06:53:42;102379.13;;;-1.19;100.00
59789;BME280;47353;51.614;5.530;2023-01-26T06:56:07;102380.97;;;-1.19;100.00
59789;BME280;47353;51.614;5.530;2023-01-26T06:58:33;102378.09;;;-1.18;100.00
59789;BME280;47353;51.614;5.530;2023-01-26T07:00:58;102382.50;;;-1.17;100.00
59789;BME280;47353;51.614;5.530;2023-01-26T07:03:24;102387.78;;;-1.15;100.00
59789;BME280;47353;51.614;5.530;2023-01-26T07:05:50;102386.09;;;-1.16;100.00
59789;BME280;47353;51.614;5.530;2023-01-26T07:08:16;102374.03;;;-1.14;100.00
59789;BME280;47353;51.614;5.530;2023-01-26T07:10:41;102380.16;;;-1.12;100.00
59789;BME280;47353;51.614;5.530;2023-01-26T07:13:06;102387.44;;;-1.12;100.00
59789;BME280;47353;51.614;5.530;2023-01-26T07:15:32;102393.56;;;-1.10;100.00
59789;BME280;47353;51.614;5.530;2023-01-26T07:17:58;102387.97;;;-1.09;100.00
59789;BME280;47353;51.614;5.530;2023-01-26T07:20:24;102389.66;;;-1.08;100.00
59789;BME280;47353;51.614;5.530;2023-01-26T07:22:50;102389.34;;;-1.05;100.00
59789;BME280;47353;51.614;5.530;2023-01-26T07:25:17;102395.47;;;-1.03;100.00
59789;BME280;47353;51.614;5.530;2023-01-26T07:27:42;102389.88;;;-1.01;100.00
59789;BME280;47353;51.614;5.530;2023-01-26T07:30:09;102382.91;;;-1.04;100.00
59789;BME280;47353;51.614;5.530;2023-01-26T07:32:35;102380.72;;;-1.00;100.00
59789;BME280;47353;51.614;5.530;2023-01-26T07:35:00;102379.53;;;-0.98;100.00
59789;BME280;47353;51.614;5.530;2023-01-26T07:37:29;102386.16;;;-1.00;100.00
59789;BME280;47353;51.614;5.530;2023-01-26T07:39:54;102387.53;;;-0.96;100.00
59789;BME280;47353;51.614;5.530;2023-01-26T07:42:20;102382.94;;;-0.96;100.00
59789;BME280;47353;51.614;5.530;2023-01-26T07:44:45;102390.06;;;-0.95;100.00
59789;BME280;47353;51.614;5.530;2023-01-26T07:47:11;102402.47;;;-0.92;100.00
59789;BME280;47353;51.614;5.530;2023-01-26T07:49:36;102399.59;;;-0.91;100.00
59789;BME280;47353;51.614;5.530;2023-01-26T07:52:03;102398.59;;;-0.90;100.00
59789;BME280;47353;51.614;5.530;2023-01-26T07:54:31;102395.88;;;-0.90;100.00
59789;BME280;47353;51.614;5.530;2023-01-26T07:56:56;102399.41;;;-0.89;100.00
59789;BME280;47353;51.614;5.530;2023-01-26T07:59:22;102408.28;;;-0.87;100.00
59789;BME280;47353;51.614;5.530;2023-01-26T08:01:49;102404.53;;;-0.86;100.00
59789;BME280;47353;51.614;5.530;2023-01-26T08:04:15;102422.38;;;-0.84;100.00
59789;BME280;47353;51.614;5.530;2023-01-26T08:06:40;102407.78;;;-0.83;100.00
59789;BME280;47353;51.614;5.530;2023-01-26T08:09:05;102409.50;;;-0.82;100.00
59789;BME280;47353;51.614;5.530;2023-01-26T08:11:31;102424.63;;;-0.79;100.00
59789;BME280;47353;51.614;5.530;2023-01-26T08:13:56;102407.09;;;-0.77;100.00
59789;BME280;47353;51.614;5.530;2023-01-26T08:16:22;102417.81;;;-0.75;100.00
59789;BME280;47353;51.614;5.530;2023-01-26T08:18:47;102397.25;;;-0.78;100.00
59789;BME280;47353;51.614;5.530;2023-01-26T08:21:14;102415.28;;;-0.69;100.00
59789;BME280;47353;51.614;5.530;2023-01-26T08:23:41;102419.53;;;-0.66;100.00
59789;BME280;47353;51.614;5.530;2023-01-26T08:26:11;102415.13;;;-0.67;100.00
59789;BME280;47353;51.614;5.530;2023-01-26T08:28:37;102415.50;;;-0.62;100.00
59789;BME280;47353;51.614;5.530;2023-01-26T08:31:06;102417.88;;;-0.59;100.00
59789;BME280;47353;51.614;5.530;2023-01-26T08:33:32;102420.25;;;-0.56;100.00
59789;BME280;47353;51.614;5.530;2023-01-26T08:36:04;102420.09;;;-0.55;100.00
59789;BME280;47353;51.614;5.530;2023-01-26T08:38:31;102425.19;;;-0.52;100.00
59789;BME280;47353;51.614;5.530;2023-01-26T08:40:58;102421.28;;;-0.49;100.00
59789;BME280;47353;51.614;5.530;2023-01-26T08:43:25;102424.00;;;-0.49;100.00
59789;BME280;47353;51.614;5.530;2023-01-26T08:45:51;102429.09;;;-0.46;100.00
59789;BME280;47353;51.614;5.530;2023-01-26T08:48:16;102427.78;;;-0.42;100.00
59789;BME280;47353;51.614;5.530;2023-01-26T08:50:42;102422.66;;;-0.45;100.00
59789;BME280;47353;51.614;5.530;2023-01-26T08:53:08;102431.19;;;-0.40;100.00
59789;BME280;47353;51.614;5.530;2023-01-26T08:55:34;102437.47;;;-0.40;100.00
59789;BME280;47353;51.614;5.530;2023-01-26T08:58:00;102428.78;;;-0.35;100.00
59789;BME280;47353;51.614;5.530;2023-01-26T09:00:26;102432.91;;;-0.31;100.00
59789;BME280;47353;51.614;5.530;2023-01-26T09:03:02;102423.53;;;-0.29;100.00
59789;BME280;47353;51.614;5.530;2023-01-26T09:05:34;102425.06;;;-0.26;100.00
59789;BME280;47353;51.614;5.530;2023-01-26T09:08:00;102401.25;;;-0.32;100.00
59789;BME280;47353;51.614;5.530;2023-01-26T09:10:25;102428.16;;;-0.13;100.00
59789;BME280;47353;51.614;5.530;2023-01-26T09:12:51;102433.97;;;0.00;100.00
59789;BME280;47353;51.614;5.530;2023-01-26T09:15:16;102429.69;;;0.06;100.00
59789;BME280;47353;51.614;5.530;2023-01-26T09:17:42;102419.66;;;0.06;100.00
59789;BME280;47353;51.614;5.530;2023-01-26T09:20:10;102429.88;;;0.12;100.00
59789;BME280;47353;51.614;5.530;2023-01-26T09:22:36;102436.16;;;0.13;100.00
59789;BME280;47353;51.614;5.530;2023-01-26T09:25:01;102433.41;;;0.13;100.00
59789;BME280;47353;51.614;5.530;2023-01-26T09:27:27;102435.16;;;0.14;100.00
59789;BME280;47353;51.614;5.530;2023-01-26T09:29:52;102433.41;;;0.13;100.00
59789;BME280;47353;51.614;5.530;2023-01-26T09:32:18;102440.59;;;0.14;100.00
59789;BME280;47353;51.614;5.530;2023-01-26T09:34:44;102438.88;;;0.13;100.00
59789;BME280;47353;51.614;5.530;2023-01-26T09:37:09;102441.94;;;0.10;100.00
59789;BME280;47353;51.614;5.530;2023-01-26T09:39:35;102449.44;;;0.08;100.00
59789;BME280;47353;51.614;5.530;2023-01-26T09:42:58;102452.31;;;0.14;100.00
59789;BME280;47353;51.614;5.530;2023-01-26T09:50:30;102438.69;;;0.30;100.00
59789;BME280;47353;51.614;5.530;2023-01-26T09:53:03;102436.66;;;0.32;100.00
59789;BME280;47353;51.614;5.530;2023-01-26T09:55:30;102436.97;;;0.37;100.00
59789;BME280;47353;51.614;5.530;2023-01-26T09:58:00;102445.66;;;0.41;100.00
59789;BME280;47353;51.614;5.530;2023-01-26T10:00:35;102432.22;;;0.39;100.00
59789;BME280;47353;51.614;5.530;2023-01-26T10:03:16;102443.97;;;0.48;100.00
59789;BME280;47353;51.614;5.530;2023-01-26T10:08:26;102440.22;;;0.57;100.00
59789;BME280;47353;51.614;5.530;2023-01-26T10:10:56;102448.72;;;0.62;100.00
59789;BME280;47353;51.614;5.530;2023-01-26T10:13:23;102437.66;;;0.63;100.00
59789;BME280;47353;51.614;5.530;2023-01-26T10:15:57;102437.59;;;0.71;100.00
59789;BME280;47353;51.614;5.530;2023-01-26T10:18:32;102429.94;;;0.75;100.00
59789;BME280;47353;51.614;5.530;2023-01-26T10:21:02;102435.53;;;0.81;100.00
59789;BME280;47353;51.614;5.530;2023-01-26T10:23:31;102426.84;;;0.86;100.00
59789;BME280;47353;51.614;5.530;2023-01-26T10:26:16;102429.38;;;0.95;100.00
59789;BME280;47353;51.614;5.530;2023-01-26T10:28:43;102433.06;;;1.02;100.00
59789;BME280;47353;51.614;5.530;2023-01-26T10:31:14;102430.50;;;1.09;100.00
59789;BME280;47353;51.614;5.530;2023-01-26T10:33:47;102437.97;;;1.15;100.00
59789;BME280;47353;51.614;5.530;2023-01-26T10:36:13;102434.53;;;1.21;100.00
59789;BME280;47353;51.614;5.530;2023-01-26T10:38:40;102441.47;;;1.31;100.00
59789;BME280;47353;51.614;5.530;2023-01-26T10:41:27;102446.56;;;1.34;100.00
59789;BME280;47353;51.614;5.530;2023-01-26T10:43:55;102448.13;;;1.37;100.00
59789;BME280;47353;51.614;5.530;2023-01-26T10:46:25;102442.84;;;1.35;100.00
59789;BME280;47353;51.614;5.530;2023-01-26T10:48:56;102439.44;;;1.33;100.00
59789;BME280;47353;51.614;5.530;2023-01-26T10:51:26;102437.84;;;1.39;100.00
59789;BME280;47353;51.614;5.530;2023-01-26T10:54:32;102436.72;;;1.56;100.00
59789;BME280;47353;51.614;5.530;2023-01-26T10:57:02;102449.44;;;1.71;100.00
59789;BME280;47353;51.614;5.530;2023-01-26T10:59:30;102440.84;;;1.83;100.00
59789;BME280;47353;51.614;5.530;2023-01-26T11:04:35;102440.56;;;2.00;100.00
59789;BME280;47353;51.614;5.530;2023-01-26T11:07:27;102441.19;;;2.25;100.00
59789;BME280;47353;51.614;5.530;2023-01-26T11:09:54;102438.41;;;2.47;100.00
59789;BME280;47353;51.614;5.530;2023-01-26T11:12:20;102433.44;;;2.65;100.00
59789;BME280;47353;51.614;5.530;2023-01-26T11:15:10;102428.38;;;2.77;100.00
59789;BME280;47353;51.614;5.530;2023-01-26T11:23:14;102429.81;;;3.02;100.00
59789;BME280;47353;51.614;5.530;2023-01-26T11:29:08;102432.19;;;3.55;100.00
59789;BME280;47353;51.614;5.530;2023-01-26T11:32:02;102435.16;;;3.75;100.00
59789;BME280;47353;51.614;5.530;2023-01-26T11:34:49;102443.28;;;3.68;100.00
59789;BME280;47353;51.614;5.530;2023-01-26T11:40:31;102440.47;;;3.97;100.00
59789;BME280;47353;51.614;5.530;2023-01-26T11:54:18;102415.31;;;7.09;100.00
59789;BME280;47353;51.614;5.530;2023-01-26T11:56:56;102413.84;;;8.57;100.00
59789;BME280;47353;51.614;5.530;2023-01-26T11:59:31;102411.63;;;10.10;100.00
59789;BME280;47353;51.614;5.530;2023-01-26T12:02:12;102418.59;;;11.11;100.00
59789;BME280;47353;51.614;5.530;2023-01-26T12:04:44;102410.22;;;12.58;91.89
59789;BME280;47353;51.614;5.530;2023-01-26T12:07:19;102411.59;;;13.49;85.99
59789;BME280;47353;51.614;5.530;2023-01-26T12:09:46;102411.78;;;13.85;79.13
59789;BME280;47353;51.614;5.530;2023-01-26T12:12:17;102407.91;;;14.66;75.21
59789;BME280;47353;51.614;5.530;2023-01-26T12:14:50;102417.38;;;14.12;74.23
59789;BME280;47353;51.614;5.530;2023-01-26T12:17:28;102403.84;;;13.29;75.28
59789;BME280;47353;51.614;5.530;2023-01-26T12:23:04;102399.16;;;12.30;82.70
59789;BME280;47353;51.614;5.530;2023-01-26T12:25:56;102394.97;;;11.60;81.10
59789;BME280;47353;51.614;5.530;2023-01-26T12:28:23;102392.88;;;11.50;83.29
59789;BME280;47353;51.614;5.530;2023-01-26T12:31:21;102382.94;;;11.94;83.77
59789;BME280;47353;51.614;5.530;2023-01-26T12:33:51;102381.69;;;12.02;80.88
59789;BME280;47353;51.614;5.530;2023-01-26T12:39:34;102374.09;;;11.29;82.60
59789;BME280;47353;51.614;5.530;2023-01-26T12:42:25;102368.47;;;11.13;83.94
59789;BME280;47353;51.614;5.530;2023-01-26T12:44:56;102365.94;;;12.35;82.42
59789;BME280;47353;51.614;5.530;2023-01-26T12:47:36;102365.31;;;14.12;77.00
59789;BME280;47353;51.614;5.530;2023-01-26T12:55:21;102361.94;;;14.68;68.32
59789;BME280;47353;51.614;5.530;2023-01-26T12:57:56;102360.53;;;14.66;67.21
59789;BME280;47353;51.614;5.530;2023-01-26T13:00:27;102360.22;;;13.56;68.33
59789;BME280;47353;51.614;5.530;2023-01-26T13:03:16;102352.53;;;12.65;74.85
59789;BME280;47353;51.614;5.530;2023-01-26T13:15:13;102349.38;;;11.39;79.02
59789;BME280;47353;51.614;5.530;2023-01-26T13:25:13;102346.06;;;13.36;71.27
59789;BME280;47353;51.614;5.530;2023-01-26T13:27:44;102350.09;;;12.36;70.81
59789;BME280;47353;51.614;5.530;2023-01-26T13:35:15;102353.19;;;10.41;75.87
59789;BME280;47353;51.614;5.530;2023-01-26T13:37:55;102345.00;;;9.93;77.95
59789;BME280;47353;51.614;5.530;2023-01-26T13:40:27;102342.63;;;9.56;79.65
59789;BME280;47353;51.614;5.530;2023-01-26T13:43:05;102341.91;;;10.54;80.56
59789;BME280;47353;51.614;5.530;2023-01-26T13:48:45;102335.72;;;12.72;75.20
59789;BME280;47353;51.614;5.530;2023-01-26T13:51:22;102337.59;;;14.54;66.47
59789;BME280;47353;51.614;5.530;2023-01-26T13:54:12;102337.81;;;16.52;66.39
59789;BME280;47353;51.614;5.530;2023-01-26T13:56:43;102328.94;;;17.93;56.81
59789;BME280;47353;51.614;5.530;2023-01-26T13:59:23;102339.06;;;17.30;52.91
59789;BME280;47353;51.614;5.530;2023-01-26T14:01:51;102340.75;;;15.71;56.04
59789;BME280;47353;51.614;5.530;2023-01-26T14:04:25;102351.88;;;14.31;60.19
59789;BME280;47353;51.614;5.530;2023-01-26T14:09:21;102354.53;;;11.87;64.71
59789;BME280;47353;51.614;5.530;2023-01-26T14:11:54;102353.75;;;11.24;68.75
59789;BME280;47353;51.614;5.530;2023-01-26T14:14:26;102346.72;;;10.82;70.01
59789;BME280;47353;51.614;5.530;2023-01-26T14:16:52;102348.16;;;10.50;71.27
59789;BME280;47353;51.614;5.530;2023-01-26T14:19:21;102345.81;;;11.04;71.24
59789;BME280;47353;51.614;5.530;2023-01-26T14:21:55;102346.13;;;11.31;68.74